sensor_id;sensor_type;location;lat;lon;timestamp;temperature;humidity
17452;DHT22;8843;48.838;9.324;2023-03-11T00:00:36;8.50;84.50
17452;DHT22;8843;48.838;9.324;2023-03-11T00:03:04;8.40;79.40
17452;DHT22;8843;48.838;9.324;2023-03-11T00:05:34;8.30;80.90
17452;DHT22;8843;48.838;9.324;2023-03-11T00:08:02;8.30;81.30
17452;DHT22;8843;48.838;9.324;2023-03-11T00:10:31;8.20;80.80
17452;DHT22;8843;48.838;9.324;2023-03-11T00:12:58;8.20;80.10
17452;DHT22;8843;48.838;9.324;2023-03-11T00:15:26;8.30;84.50
17452;DHT22;8843;48.838;9.324;2023-03-11T00:17:53;8.30;79.30
17452;DHT22;8843;48.838;9.324;2023-03-11T00:20:22;8.30;81.00
17452;DHT22;8843;48.838;9.324;2023-03-11T00:22:51;8.10;78.10
17452;DHT22;8843;48.838;9.324;2023-03-11T00:25:19;8.30;83.90
17452;DHT22;8843;48.838;9.324;2023-03-11T00:27:48;8.30;83.60
17452;DHT22;8843;48.838;9.324;2023-03-11T00:30:17;8.10;80.00
17452;DHT22;8843;48.838;9.324;2023-03-11T00:32:45;8.20;81.60
17452;DHT22;8843;48.838;9.324;2023-03-11T00:35:13;8.20;82.80
17452;DHT22;8843;48.838;9.324;2023-03-11T00:37:41;8.10;77.60
17452;DHT22;8843;48.838;9.324;2023-03-11T00:40:13;8.20;78.20
17452;DHT22;8843;48.838;9.324;2023-03-11T00:42:40;8.20;84.40
17452;DHT22;8843;48.838;9.324;2023-03-11T00:45:07;8.20;78.40
17452;DHT22;8843;48.838;9.324;2023-03-11T00:47:34;8.10;80.80
17452;DHT22;8843;48.838;9.324;2023-03-11T00:50:01;8.10;78.60
17452;DHT22;8843;48.838;9.324;2023-03-11T00:52:28;8.10;78.90
17452;DHT22;8843;48.838;9.324;2023-03-11T00:54:55;8.00;77.70
17452;DHT22;8843;48.838;9.324;2023-03-11T00:57:23;8.00;77.80
17452;DHT22;8843;48.838;9.324;2023-03-11T00:59:52;8.20;83.30
17452;DHT22;8843;48.838;9.324;2023-03-11T01:02:19;8.10;81.30
17452;DHT22;8843;48.838;9.324;2023-03-11T01:04:46;8.20;82.70
17452;DHT22;8843;48.838;9.324;2023-03-11T01:07:12;8.30;84.20
17452;DHT22;8843;48.838;9.324;2023-03-11T01:09:39;8.10;75.60
17452;DHT22;8843;48.838;9.324;2023-03-11T01:12:06;8.20;81.20
17452;DHT22;8843;48.838;9.324;2023-03-11T01:14:34;7.90;79.00
17452;DHT22;8843;48.838;9.324;2023-03-11T01:17:01;7.90;78.40
17452;DHT22;8843;48.838;9.324;2023-03-11T01:19:28;8.20;85.50
17452;DHT22;8843;48.838;9.324;2023-03-11T01:21:55;8.10;80.60
17452;DHT22;8843;48.838;9.324;2023-03-11T01:24:22;8.00;76.80
17452;DHT22;8843;48.838;9.324;2023-03-11T01:26:49;8.10;82.70
17452;DHT22;8843;48.838;9.324;2023-03-11T01:29:16;8.10;77.10
17452;DHT22;8843;48.838;9.324;2023-03-11T01:31:44;8.00;79.20
17452;DHT22;8843;48.838;9.324;2023-03-11T01:34:11;7.90;79.30
17452;DHT22;8843;48.838;9.324;2023-03-11T01:36:38;7.90;76.80
17452;DHT22;8843;48.838;9.324;2023-03-11T01:39:05;8.00;80.10
17452;DHT22;8843;48.838;9.324;2023-03-11T01:41:32;8.00;76.40
17452;DHT22;8843;48.838;9.324;2023-03-11T01:43:59;8.10;85.60
17452;DHT22;8843;48.838;9.324;2023-03-11T01:46:27;8.00;81.00
17452;DHT22;8843;48.838;9.324;2023-03-11T01:48:57;8.00;80.00
17452;DHT22;8843;48.838;9.324;2023-03-11T01:51:27;8.10;80.40
17452;DHT22;8843;48.838;9.324;2023-03-11T01:53:56;8.10;79.00
17452;DHT22;8843;48.838;9.324;2023-03-11T01:56:25;8.00;78.30
17452;DHT22;8843;48.838;9.324;2023-03-11T01:58:53;8.10;84.80
17452;DHT22;8843;48.838;9.324;2023-03-11T02:01:21;8.00;79.00
17452;DHT22;8843;48.838;9.324;2023-03-11T02:03:50;8.10;81.50
17452;DHT22;8843;48.838;9.324;2023-03-11T02:06:21;8.00;77.40
17452;DHT22;8843;48.838;9.324;2023-03-11T02:08:49;8.20;85.50
17452;DHT22;8843;48.838;9.324;2023-03-11T02:11:19;8.00;80.20
17452;DHT22;8843;48.838;9.324;2023-03-11T02:13:49;8.20;83.40
17452;DHT22;8843;48.838;9.324;2023-03-11T02:16:17;8.20;81.80
17452;DHT22;8843;48.838;9.324;2023-03-11T02:18:44;8.30;85.80
17452;DHT22;8843;48.838;9.324;2023-03-11T02:21:22;8.40;86.20
17452;DHT22;8843;48.838;9.324;2023-03-11T02:23:55;8.40;84.00
17452;DHT22;8843;48.838;9.324;2023-03-11T02:26:28;8.10;79.60
17452;DHT22;8843;48.838;9.324;2023-03-11T02:28:58;8.10;81.80
17452;DHT22;8843;48.838;9.324;2023-03-11T02:31:27;8.20;84.90
17452;DHT22;8843;48.838;9.324;2023-03-11T02:33:55;8.30;84.10
17452;DHT22;8843;48.838;9.324;2023-03-11T02:36:33;8.40;84.70
17452;DHT22;8843;48.838;9.324;2023-03-11T02:39:00;8.20;82.70
17452;DHT22;8843;48.838;9.324;2023-03-11T02:41:27;8.20;80.50
17452;DHT22;8843;48.838;9.324;2023-03-11T02:43:56;8.30;85.70
17452;DHT22;8843;48.838;9.324;2023-03-11T02:46:24;8.20;83.90
17452;DHT22;8843;48.838;9.324;2023-03-11T02:48:53;8.10;83.30
17452;DHT22;8843;48.838;9.324;2023-03-11T02:51:21;8.20;85.30
17452;DHT22;8843;48.838;9.324;2023-03-11T02:53:50;8.20;84.20
17452;DHT22;8843;48.838;9.324;2023-03-11T02:56:18;8.20;84.60
17452;DHT22;8843;48.838;9.324;2023-03-11T02:58:45;8.30;85.70
17452;DHT22;8843;48.838;9.324;2023-03-11T03:01:12;8.40;85.80
17452;DHT22;8843;48.838;9.324;2023-03-11T03:03:41;8.40;84.00
17452;DHT22;8843;48.838;9.324;2023-03-11T03:06:07;8.10;78.60
17452;DHT22;8843;48.838;9.324;2023-03-11T03:08:34;8.20;84.70
17452;DHT22;8843;48.838;9.324;2023-03-11T03:11:01;8.30;85.00
17452;DHT22;8843;48.838;9.324;2023-03-11T03:13:28;8.30;81.30
17452;DHT22;8843;48.838;9.324;2023-03-11T03:15:57;8.20;83.00
17452;DHT22;8843;48.838;9.324;2023-03-11T03:18:27;8.30;85.50
17452;DHT22;8843;48.838;9.324;2023-03-11T03:20:56;8.20;84.70
17452;DHT22;8843;48.838;9.324;2023-03-11T03:23:23;8.00;82.30
17452;DHT22;8843;48.838;9.324;2023-03-11T03:25:50;8.10;82.60
17452;DHT22;8843;48.838;9.324;2023-03-11T03:28:16;8.00;84.30
17452;DHT22;8843;48.838;9.324;2023-03-11T03:30:43;8.00;80.80
17452;DHT22;8843;48.838;9.324;2023-03-11T03:33:10;8.10;86.10
17452;DHT22;8843;48.838;9.324;2023-03-11T03:35:40;8.20;85.10
17452;DHT22;8843;48.838;9.324;2023-03-11T03:38:09;8.20;85.10
17452;DHT22;8843;48.838;9.324;2023-03-11T03:40:36;8.10;81.20
17452;DHT22;8843;48.838;9.324;2023-03-11T03:43:03;8.10;83.00
17452;DHT22;8843;48.838;9.324;2023-03-11T03:45:30;8.20;84.80
17452;DHT22;8843;48.838;9.324;2023-03-11T03:47:57;8.20;84.50
17452;DHT22;8843;48.838;9.324;2023-03-11T03:50:24;8.30;85.30
17452;DHT22;8843;48.838;9.324;2023-03-11T03:52:50;8.30;85.60
17452;DHT22;8843;48.838;9.324;2023-03-11T03:55:19;8.30;83.40
17452;DHT22;8843;48.838;9.324;2023-03-11T03:57:46;8.30;83.60
17452;DHT22;8843;48.838;9.324;2023-03-11T04:00:13;8.10;81.40
17452;DHT22;8843;48.838;9.324;2023-03-11T04:02:41;8.20;85.70
17452;DHT22;8843;48.838;9.324;2023-03-11T04:05:08;8.10;81.50
17452;DHT22;8843;48.838;9.324;2023-03-11T04:07:35;7.90;81.50
17452;DHT22;8843;48.838;9.324;2023-03-11T04:10:03;8.20;85.30
17452;DHT22;8843;48.838;9.324;2023-03-11T04:12:32;8.20;85.30
17452;DHT22;8843;48.838;9.324;2023-03-11T04:14:58;8.20;85.10
17452;DHT22;8843;48.838;9.324;2023-03-11T04:17:25;8.20;82.80
17452;DHT22;8843;48.838;9.324;2023-03-11T04:19:52;8.10;85.00
17452;DHT22;8843;48.838;9.324;2023-03-11T04:22:19;8.20;85.40
17452;DHT22;8843;48.838;9.324;2023-03-11T04:24:46;8.20;85.10
17452;DHT22;8843;48.838;9.324;2023-03-11T04:27:13;8.20;85.10
17452;DHT22;8843;48.838;9.324;2023-03-11T04:29:41;8.20;84.50
17452;DHT22;8843;48.838;9.324;2023-03-11T04:32:08;8.30;85.20
17452;DHT22;8843;48.838;9.324;2023-03-11T04:34:35;8.20;84.90
17452;DHT22;8843;48.838;9.324;2023-03-11T04:37:02;8.20;85.00
17452;DHT22;8843;48.838;9.324;2023-03-11T04:39:29;8.20;84.70
17452;DHT22;8843;48.838;9.324;2023-03-11T04:41:56;8.20;84.70
17452;DHT22;8843;48.838;9.324;2023-03-11T04:44:23;8.10;80.70
17452;DHT22;8843;48.838;9.324;2023-03-11T04:46:51;8.20;85.10
17452;DHT22;8843;48.838;9.324;2023-03-11T04:49:18;8.20;85.10
17452;DHT22;8843;48.838;9.324;2023-03-11T04:51:45;8.20;85.10
17452;DHT22;8843;48.838;9.324;2023-03-11T04:54:12;8.20;83.60
17452;DHT22;8843;48.838;9.324;2023-03-11T04:56:39;8.20;85.00
17452;DHT22;8843;48.838;9.324;2023-03-11T04:59:05;8.20;82.50
17452;DHT22;8843;48.838;9.324;2023-03-11T05:01:32;8.20;85.10
17452;DHT22;8843;48.838;9.324;2023-03-11T05:04:00;8.20;84.60
17452;DHT22;8843;48.838;9.324;2023-03-11T05:06:28;8.20;85.00
17452;DHT22;8843;48.838;9.324;2023-03-11T05:08:54;8.20;85.10
17452;DHT22;8843;48.838;9.324;2023-03-11T05:11:21;8.20;84.70
17452;DHT22;8843;48.838;9.324;2023-03-11T05:13:48;8.20;83.50
17452;DHT22;8843;48.838;9.324;2023-03-11T05:16:15;8.20;83.20
17452;DHT22;8843;48.838;9.324;2023-03-11T05:18:42;8.10;84.10
17452;DHT22;8843;48.838;9.324;2023-03-11T05:21:10;8.20;84.90
17452;DHT22;8843;48.838;9.324;2023-03-11T05:23:37;8.00;83.60
17452;DHT22;8843;48.838;9.324;2023-03-11T05:26:04;8.10;85.00
17452;DHT22;8843;48.838;9.324;2023-03-11T05:28:31;8.00;83.70
17452;DHT22;8843;48.838;9.324;2023-03-11T05:30:58;8.10;84.40
17452;DHT22;8843;48.838;9.324;2023-03-11T05:33:25;8.10;84.80
17452;DHT22;8843;48.838;9.324;2023-03-11T05:36:03;8.10;84.50
17452;DHT22;8843;48.838;9.324;2023-03-11T05:38:31;8.10;84.80
17452;DHT22;8843;48.838;9.324;2023-03-11T05:40:58;8.10;84.80
17452;DHT22;8843;48.838;9.324;2023-03-11T05:43:25;8.10;84.80
17452;DHT22;8843;48.838;9.324;2023-03-11T05:45:52;8.00;84.10
17452;DHT22;8843;48.838;9.324;2023-03-11T05:48:19;8.10;84.70
17452;DHT22;8843;48.838;9.324;2023-03-11T05:50:45;8.10;84.00
17452;DHT22;8843;48.838;9.324;2023-03-11T05:53:12;8.10;85.60
17452;DHT22;8843;48.838;9.324;2023-03-11T05:55:40;8.00;82.40
17452;DHT22;8843;48.838;9.324;2023-03-11T05:58:07;8.00;84.50
17452;DHT22;8843;48.838;9.324;2023-03-11T06:00:34;8.10;84.80
17452;DHT22;8843;48.838;9.324;2023-03-11T06:03:01;8.10;84.70
17452;DHT22;8843;48.838;9.324;2023-03-11T06:05:28;8.10;84.80
17452;DHT22;8843;48.838;9.324;2023-03-11T06:07:55;8.10;84.30
17452;DHT22;8843;48.838;9.324;2023-03-11T06:10:22;8.10;84.60
17452;DHT22;8843;48.838;9.324;2023-03-11T06:12:50;8.10;84.70
17452;DHT22;8843;48.838;9.324;2023-03-11T06:15:17;8.10;84.70
17452;DHT22;8843;48.838;9.324;2023-03-11T06:17:44;8.10;85.40
17452;DHT22;8843;48.838;9.324;2023-03-11T06:20:11;8.10;85.40
17452;DHT22;8843;48.838;9.324;2023-03-11T06:22:38;8.00;84.60
17452;DHT22;8843;48.838;9.324;2023-03-11T06:25:06;8.00;85.40
17452;DHT22;8843;48.838;9.324;2023-03-11T06:27:33;8.00;83.30
17452;DHT22;8843;48.838;9.324;2023-03-11T06:30:02;8.00;84.70
17452;DHT22;8843;48.838;9.324;2023-03-11T06:32:29;8.00;84.70
17452;DHT22;8843;48.838;9.324;2023-03-11T06:34:56;8.00;85.00
17452;DHT22;8843;48.838;9.324;2023-03-11T06:37:23;8.00;80.80
17452;DHT22;8843;48.838;9.324;2023-03-11T06:39:51;8.00;84.70
17452;DHT22;8843;48.838;9.324;2023-03-11T06:42:18;8.00;84.70
17452;DHT22;8843;48.838;9.324;2023-03-11T06:44:46;7.90;84.50
17452;DHT22;8843;48.838;9.324;2023-03-11T06:47:14;7.90;84.60
17452;DHT22;8843;48.838;9.324;2023-03-11T06:49:41;7.90;84.50
17452;DHT22;8843;48.838;9.324;2023-03-11T06:52:08;7.80;81.40
17452;DHT22;8843;48.838;9.324;2023-03-11T06:54:35;7.90;84.80
17452;DHT22;8843;48.838;9.324;2023-03-11T06:57:05;7.90;84.60
17452;DHT22;8843;48.838;9.324;2023-03-11T06:59:32;8.00;84.80
17452;DHT22;8843;48.838;9.324;2023-03-11T07:01:59;8.00;84.60
17452;DHT22;8843;48.838;9.324;2023-03-11T07:04:28;6.90;68.40
17452;DHT22;8843;48.838;9.324;2023-03-11T07:06:55;6.10;69.10
17452;DHT22;8843;48.838;9.324;2023-03-11T07:09:22;5.50;68.90
17452;DHT22;8843;48.838;9.324;2023-03-11T07:11:49;5.30;69.40
17452;DHT22;8843;48.838;9.324;2023-03-11T07:14:17;5.40;70.00
17452;DHT22;8843;48.838;9.324;2023-03-11T07:16:44;5.40;69.20
17452;DHT22;8843;48.838;9.324;2023-03-11T07:19:11;5.10;69.90
17452;DHT22;8843;48.838;9.324;2023-03-11T07:21:40;5.20;70.40
17452;DHT22;8843;48.838;9.324;2023-03-11T07:24:07;5.50;70.40
17452;DHT22;8843;48.838;9.324;2023-03-11T07:26:34;5.80;74.00
17452;DHT22;8843;48.838;9.324;2023-03-11T07:29:02;5.70;68.60
17452;DHT22;8843;48.838;9.324;2023-03-11T07:31:30;6.80;90.10
17452;DHT22;8843;48.838;9.324;2023-03-11T07:33:59;7.00;79.20
17452;DHT22;8843;48.838;9.324;2023-03-11T07:36:27;7.80;84.60
17452;DHT22;8843;48.838;9.324;2023-03-11T07:38:58;8.90;80.40
17452;DHT22;8843;48.838;9.324;2023-03-11T07:41:27;9.50;74.60
17452;DHT22;8843;48.838;9.324;2023-03-11T07:43:56;9.70;71.60
17452;DHT22;8843;48.838;9.324;2023-03-11T07:46:29;9.70;69.00
17452;DHT22;8843;48.838;9.324;2023-03-11T07:49:00;9.00;65.90
17452;DHT22;8843;48.838;9.324;2023-03-11T07:51:30;8.20;70.50
17452;DHT22;8843;48.838;9.324;2023-03-11T07:53:59;7.90;73.30
17452;DHT22;8843;48.838;9.324;2023-03-11T07:56:28;7.60;71.40
17452;DHT22;8843;48.838;9.324;2023-03-11T07:58:56;7.30;71.20
17452;DHT22;8843;48.838;9.324;2023-03-11T08:01:25;7.20;71.60
17452;DHT22;8843;48.838;9.324;2023-03-11T08:03:55;7.10;71.80
17452;DHT22;8843;48.838;9.324;2023-03-11T08:06:25;7.20;71.70
17452;DHT22;8843;48.838;9.324;2023-03-11T08:08:52;7.20;73.20
17452;DHT22;8843;48.838;9.324;2023-03-11T08:11:20;7.10;74.40
17452;DHT22;8843;48.838;9.324;2023-03-11T08:13:47;7.20;74.00
17452;DHT22;8843;48.838;9.324;2023-03-11T08:16:16;7.20;76.80
17452;DHT22;8843;48.838;9.324;2023-03-11T08:18:44;7.20;71.60
17452;DHT22;8843;48.838;9.324;2023-03-11T08:21:13;7.20;72.00
17452;DHT22;8843;48.838;9.324;2023-03-11T08:23:40;7.20;74.50
17452;DHT22;8843;48.838;9.324;2023-03-11T08:26:09;7.10;73.60
17452;DHT22;8843;48.838;9.324;2023-03-11T08:28:38;7.10;71.40
17452;DHT22;8843;48.838;9.324;2023-03-11T08:31:11;6.90;70.00
17452;DHT22;8843;48.838;9.324;2023-03-11T08:33:38;7.00;71.60
17452;DHT22;8843;48.838;9.324;2023-03-11T08:36:05;7.10;75.20
17452;DHT22;8843;48.838;9.324;2023-03-11T08:38:32;7.10;77.50
17452;DHT22;8843;48.838;9.324;2023-03-11T08:40:59;7.30;77.20
17452;DHT22;8843;48.838;9.324;2023-03-11T08:43:26;7.40;76.50
17452;DHT22;8843;48.838;9.324;2023-03-11T08:45:55;7.40;77.40
17452;DHT22;8843;48.838;9.324;2023-03-11T08:48:21;7.40;79.00
17452;DHT22;8843;48.838;9.324;2023-03-11T08:50:50;7.40;75.50
17452;DHT22;8843;48.838;9.324;2023-03-11T08:53:17;7.50;78.30
17452;DHT22;8843;48.838;9.324;2023-03-11T08:55:43;7.40;74.30
17452;DHT22;8843;48.838;9.324;2023-03-11T08:58:10;7.30;78.90
17452;DHT22;8843;48.838;9.324;2023-03-11T09:00:37;7.30;75.90
17452;DHT22;8843;48.838;9.324;2023-03-11T09:03:05;7.30;78.40
17452;DHT22;8843;48.838;9.324;2023-03-11T09:05:32;7.40;79.80
17452;DHT22;8843;48.838;9.324;2023-03-11T09:07:59;7.40;76.90
17452;DHT22;8843;48.838;9.324;2023-03-11T09:10:27;7.40;75.50
17452;DHT22;8843;48.838;9.324;2023-03-11T09:12:54;7.40;76.60
17452;DHT22;8843;48.838;9.324;2023-03-11T09:15:21;7.30;74.60
17452;DHT22;8843;48.838;9.324;2023-03-11T09:17:47;7.30;77.20
17452;DHT22;8843;48.838;9.324;2023-03-11T09:20:16;7.30;78.10
17452;DHT22;8843;48.838;9.324;2023-03-11T09:22:43;7.20;76.10
17452;DHT22;8843;48.838;9.324;2023-03-11T09:25:11;7.30;75.80
17452;DHT22;8843;48.838;9.324;2023-03-11T09:27:38;7.40;80.40
17452;DHT22;8843;48.838;9.324;2023-03-11T09:30:06;7.50;79.70
17452;DHT22;8843;48.838;9.324;2023-03-11T09:32:34;7.50;80.20
17452;DHT22;8843;48.838;9.324;2023-03-11T09:35:00;7.50;79.50
17452;DHT22;8843;48.838;9.324;2023-03-11T09:37:29;7.50;77.80
17452;DHT22;8843;48.838;9.324;2023-03-11T09:39:56;7.30;73.60
17452;DHT22;8843;48.838;9.324;2023-03-11T09:42:26;7.30;75.80
17452;DHT22;8843;48.838;9.324;2023-03-11T09:45:02;7.30;74.20
17452;DHT22;8843;48.838;9.324;2023-03-11T09:47:36;7.30;72.90
17452;DHT22;8843;48.838;9.324;2023-03-11T09:50:22;7.20;71.40
17452;DHT22;8843;48.838;9.324;2023-03-11T09:52:57;7.30;76.60
17452;DHT22;8843;48.838;9.324;2023-03-11T09:55:44;7.40;79.90
17452;DHT22;8843;48.838;9.324;2023-03-11T09:58:15;7.50;80.70
17452;DHT22;8843;48.838;9.324;2023-03-11T10:00:43;7.40;72.50
17452;DHT22;8843;48.838;9.324;2023-03-11T10:03:27;7.40;74.20
17452;DHT22;8843;48.838;9.324;2023-03-11T10:06:02;7.40;72.50
17452;DHT22;8843;48.838;9.324;2023-03-11T10:08:37;7.40;74.30
17452;DHT22;8843;48.838;9.324;2023-03-11T10:11:13;7.60;72.60
17452;DHT22;8843;48.838;9.324;2023-03-11T10:13:46;7.70;77.60
17452;DHT22;8843;48.838;9.324;2023-03-11T10:16:24;7.80;73.10
17452;DHT22;8843;48.838;9.324;2023-03-11T10:18:59;7.80;77.60
17452;DHT22;8843;48.838;9.324;2023-03-11T10:21:36;7.80;78.20
17452;DHT22;8843;48.838;9.324;2023-03-11T10:24:26;7.80;77.00
17452;DHT22;8843;48.838;9.324;2023-03-11T10:27:02;7.70;74.90
17452;DHT22;8843;48.838;9.324;2023-03-11T10:29:39;7.70;79.60
17452;DHT22;8843;48.838;9.324;2023-03-11T10:32:14;7.80;77.70
17452;DHT22;8843;48.838;9.324;2023-03-11T10:34:45;8.00;78.20
17452;DHT22;8843;48.838;9.324;2023-03-11T10:37:19;8.20;76.60
17452;DHT22;8843;48.838;9.324;2023-03-11T10:39:48;8.40;74.50
17452;DHT22;8843;48.838;9.324;2023-03-11T10:42:18;8.50;73.30
17452;DHT22;8843;48.838;9.324;2023-03-11T10:44:46;8.50;73.10
17452;DHT22;8843;48.838;9.324;2023-03-11T10:47:16;8.50;72.60
17452;DHT22;8843;48.838;9.324;2023-03-11T10:49:44;8.60;69.60
17452;DHT22;8843;48.838;9.324;2023-03-11T10:52:11;8.60;73.10
17452;DHT22;8843;48.838;9.324;2023-03-11T10:54:40;8.50;73.70
17452;DHT22;8843;48.838;9.324;2023-03-11T10:57:24;8.50;72.30
17452;DHT22;8843;48.838;9.324;2023-03-11T10:59:52;8.80;72.80
17452;DHT22;8843;48.838;9.324;2023-03-11T11:02:24;9.00;71.60
17452;DHT22;8843;48.838;9.324;2023-03-11T11:05:05;9.30;70.70
17452;DHT22;8843;48.838;9.324;2023-03-11T11:07:34;9.70;70.20
17452;DHT22;8843;48.838;9.324;2023-03-11T11:10:15;9.90;69.20
17452;DHT22;8843;48.838;9.324;2023-03-11T11:12:55;9.80;66.80
17452;DHT22;8843;48.838;9.324;2023-03-11T11:15:24;9.50;68.90
17452;DHT22;8843;48.838;9.324;2023-03-11T11:17:53;9.40;66.00
17452;DHT22;8843;48.838;9.324;2023-03-11T11:20:23;9.40;66.40
17452;DHT22;8843;48.838;9.324;2023-03-11T11:22:52;9.80;67.60
17452;DHT22;8843;48.838;9.324;2023-03-11T11:25:31;9.80;67.10
17452;DHT22;8843;48.838;9.324;2023-03-11T11:28:02;9.70;62.90
17452;DHT22;8843;48.838;9.324;2023-03-11T11:30:30;9.70;64.60
17452;DHT22;8843;48.838;9.324;2023-03-11T11:33:19;9.70;65.20
17452;DHT22;8843;48.838;9.324;2023-03-11T11:35:48;9.70;65.10
17452;DHT22;8843;48.838;9.324;2023-03-11T11:38:16;9.80;64.80
17452;DHT22;8843;48.838;9.324;2023-03-11T11:40:44;10.10;64.20
17452;DHT22;8843;48.838;9.324;2023-03-11T11:43:15;10.20;65.60
17452;DHT22;8843;48.838;9.324;2023-03-11T11:45:45;10.10;66.80
17452;DHT22;8843;48.838;9.324;2023-03-11T11:48:18;10.10;65.70
17452;DHT22;8843;48.838;9.324;2023-03-11T11:50:50;10.10;63.60
17452;DHT22;8843;48.838;9.324;2023-03-11T11:53:27;10.30;63.30
17452;DHT22;8843;48.838;9.324;2023-03-11T11:55:54;10.10;65.80
17452;DHT22;8843;48.838;9.324;2023-03-11T11:58:22;9.90;68.20
17452;DHT22;8843;48.838;9.324;2023-03-11T12:00:57;9.80;65.00
17452;DHT22;8843;48.838;9.324;2023-03-11T12:03:53;9.70;65.30
17452;DHT22;8843;48.838;9.324;2023-03-11T12:06:28;9.70;64.00
17452;DHT22;8843;48.838;9.324;2023-03-11T12:09:05;9.70;64.00
17452;DHT22;8843;48.838;9.324;2023-03-11T12:11:39;9.70;62.30
17452;DHT22;8843;48.838;9.324;2023-03-11T12:14:13;9.70;60.30
17452;DHT22;8843;48.838;9.324;2023-03-11T12:16:47;9.50;63.40
17452;DHT22;8843;48.838;9.324;2023-03-11T12:19:22;9.70;61.50
17452;DHT22;8843;48.838;9.324;2023-03-11T12:22:09;9.80;64.60
17452;DHT22;8843;48.838;9.324;2023-03-11T12:24:55;9.90;61.20
17452;DHT22;8843;48.838;9.324;2023-03-11T12:27:28;10.10;61.50
17452;DHT22;8843;48.838;9.324;2023-03-11T12:30:01;10.10;60.00
17452;DHT22;8843;48.838;9.324;2023-03-11T12:32:32;10.20;61.80
17452;DHT22;8843;48.838;9.324;2023-03-11T12:35:01;10.30;63.50
17452;DHT22;8843;48.838;9.324;2023-03-11T12:37:30;10.50;60.60
17452;DHT22;8843;48.838;9.324;2023-03-11T12:39:57;10.30;61.50
17452;DHT22;8843;48.838;9.324;2023-03-11T12:42:37;10.10;65.20
17452;DHT22;8843;48.838;9.324;2023-03-11T12:48:32;10.20;62.00
17452;DHT22;8843;48.838;9.324;2023-03-11T12:50:59;10.20;61.80
17452;DHT22;8843;48.838;9.324;2023-03-11T12:53:42;10.10;60.00
17452;DHT22;8843;48.838;9.324;2023-03-11T12:56:20;10.00;63.30
17452;DHT22;8843;48.838;9.324;2023-03-11T12:59:09;9.90;64.50
17452;DHT22;8843;48.838;9.324;2023-03-11T13:02:04;9.70;63.90
17452;DHT22;8843;48.838;9.324;2023-03-11T13:04:49;9.90;59.80
17452;DHT22;8843;48.838;9.324;2023-03-11T13:07:36;9.90;58.20
17452;DHT22;8843;48.838;9.324;2023-03-11T13:10:14;10.00;57.60
17452;DHT22;8843;48.838;9.324;2023-03-11T13:12:44;9.90;57.80
17452;DHT22;8843;48.838;9.324;2023-03-11T13:15:33;9.90;61.10
17452;DHT22;8843;48.838;9.324;2023-03-11T13:18:02;9.90;60.90
17452;DHT22;8843;48.838;9.324;2023-03-11T13:20:53;9.70;64.60
17452;DHT22;8843;48.838;9.324;2023-03-11T13:23:35;9.60;65.00
17452;DHT22;8843;48.838;9.324;2023-03-11T13:32:07;10.10;60.50
17452;DHT22;8843;48.838;9.324;2023-03-11T13:34:42;10.40;59.60
17452;DHT22;8843;48.838;9.324;2023-03-11T13:37:25;10.40;58.10
17452;DHT22;8843;48.838;9.324;2023-03-11T13:40:04;10.50;58.20
17452;DHT22;8843;48.838;9.324;2023-03-11T13:42:42;10.50;58.80
17452;DHT22;8843;48.838;9.324;2023-03-11T13:45:26;10.50;58.20
17452;DHT22;8843;48.838;9.324;2023-03-11T13:47:57;10.60;57.50
17452;DHT22;8843;48.838;9.324;2023-03-11T13:50:28;10.50;56.80
17452;DHT22;8843;48.838;9.324;2023-03-11T13:52:58;10.60;56.00
17452;DHT22;8843;48.838;9.324;2023-03-11T13:55:30;10.80;57.60
17452;DHT22;8843;48.838;9.324;2023-03-11T13:57:58;10.90;55.60
17452;DHT22;8843;48.838;9.324;2023-03-11T14:00:26;10.80;56.90
17452;DHT22;8843;48.838;9.324;2023-03-11T14:02:55;11.00;55.00
17452;DHT22;8843;48.838;9.324;2023-03-11T14:05:24;11.10;56.30
17452;DHT22;8843;48.838;9.324;2023-03-11T14:07:51;11.20;57.20
17452;DHT22;8843;48.838;9.324;2023-03-11T14:10:23;11.40;54.20
17452;DHT22;8843;48.838;9.324;2023-03-11T14:12:50;11.20;56.90
17452;DHT22;8843;48.838;9.324;2023-03-11T14:15:20;11.10;54.80
17452;DHT22;8843;48.838;9.324;2023-03-11T14:17:50;11.00;56.40
17452;DHT22;8843;48.838;9.324;2023-03-11T14:20:19;11.00;54.70
17452;DHT22;8843;48.838;9.324;2023-03-11T14:22:51;10.80;56.60
17452;DHT22;8843;48.838;9.324;2023-03-11T14:25:22;10.80;53.60
17452;DHT22;8843;48.838;9.324;2023-03-11T14:27:53;10.90;54.40
17452;DHT22;8843;48.838;9.324;2023-03-11T14:30:23;11.10;54.60
17452;DHT22;8843;48.838;9.324;2023-03-11T14:33:00;10.90;53.80
17452;DHT22;8843;48.838;9.324;2023-03-11T14:35:28;11.10;53.40
17452;DHT22;8843;48.838;9.324;2023-03-11T14:37:57;11.10;52.60
17452;DHT22;8843;48.838;9.324;2023-03-11T14:40:30;10.90;55.30
17452;DHT22;8843;48.838;9.324;2023-03-11T14:43:00;10.90;53.60
17452;DHT22;8843;48.838;9.324;2023-03-11T14:45:29;10.70;52.80
17452;DHT22;8843;48.838;9.324;2023-03-11T14:48:01;10.70;55.40
17452;DHT22;8843;48.838;9.324;2023-03-11T14:50:30;10.60;57.60
17452;DHT22;8843;48.838;9.324;2023-03-11T14:53:02;10.50;56.70
17452;DHT22;8843;48.838;9.324;2023-03-11T14:55:32;10.40;54.10
17452;DHT22;8843;48.838;9.324;2023-03-11T14:58:03;10.30;57.70
17452;DHT22;8843;48.838;9.324;2023-03-11T15:00:34;10.30;53.00
17452;DHT22;8843;48.838;9.324;2023-03-11T15:03:10;10.30;54.40
17452;DHT22;8843;48.838;9.324;2023-03-11T15:05:44;10.20;55.00
17452;DHT22;8843;48.838;9.324;2023-03-11T15:08:16;10.20;51.80
17452;DHT22;8843;48.838;9.324;2023-03-11T15:11:07;10.00;54.10
17452;DHT22;8843;48.838;9.324;2023-03-11T15:13:44;9.90;59.70
17452;DHT22;8843;48.838;9.324;2023-03-11T15:16:22;9.90;54.00
17452;DHT22;8843;48.838;9.324;2023-03-11T15:18:49;9.90;53.90
17452;DHT22;8843;48.838;9.324;2023-03-11T15:21:17;9.80;52.90
17452;DHT22;8843;48.838;9.324;2023-03-11T15:23:45;9.80;55.30
17452;DHT22;8843;48.838;9.324;2023-03-11T15:26:20;9.70;58.30
17452;DHT22;8843;48.838;9.324;2023-03-11T15:28:58;9.70;56.20
17452;DHT22;8843;48.838;9.324;2023-03-11T15:31:29;9.70;58.40
17452;DHT22;8843;48.838;9.324;2023-03-11T15:34:20;9.60;59.90
17452;DHT22;8843;48.838;9.324;2023-03-11T15:36:55;9.60;55.90
17452;DHT22;8843;48.838;9.324;2023-03-11T15:39:25;9.50;57.90
17452;DHT22;8843;48.838;9.324;2023-03-11T15:42:12;9.50;61.80
17452;DHT22;8843;48.838;9.324;2023-03-11T15:44:41;9.40;56.30
17452;DHT22;8843;48.838;9.324;2023-03-11T15:47:16;9.40;60.60
17452;DHT22;8843;48.838;9.324;2023-03-11T15:49:43;9.40;60.10
17452;DHT22;8843;48.838;9.324;2023-03-11T15:52:11;9.30;61.40
17452;DHT22;8843;48.838;9.324;2023-03-11T15:54:38;9.20;64.40
17452;DHT22;8843;48.838;9.324;2023-03-11T15:57:07;9.20;63.80
17452;DHT22;8843;48.838;9.324;2023-03-11T15:59:36;9.10;62.00
17452;DHT22;8843;48.838;9.324;2023-03-11T16:02:05;9.10;64.50
17452;DHT22;8843;48.838;9.324;2023-03-11T16:04:41;9.10;67.00
17452;DHT22;8843;48.838;9.324;2023-03-11T16:07:07;9.00;67.70
17452;DHT22;8843;48.838;9.324;2023-03-11T16:09:34;9.00;66.70
17452;DHT22;8843;48.838;9.324;2023-03-11T16:12:04;9.00;60.40
17452;DHT22;8843;48.838;9.324;2023-03-11T16:14:36;9.00;62.40
17452;DHT22;8843;48.838;9.324;2023-03-11T16:17:03;9.00;61.10
17452;DHT22;8843;48.838;9.324;2023-03-11T16:19:29;9.00;58.50
17452;DHT22;8843;48.838;9.324;2023-03-11T16:21:56;8.90;62.00
17452;DHT22;8843;48.838;9.324;2023-03-11T16:24:24;8.90;60.40
17452;DHT22;8843;48.838;9.324;2023-03-11T16:26:51;8.90;62.80